sensor_id;sensor_type;location;lat;lon;timestamp;P1;durP1;ratioP1;P2;durP2;ratioP2
17564;SDS011;62994;52.126;5.596;2023-05-17T00:01:13;5.35;;;2.97;;
17564;SDS011;62994;52.126;5.596;2023-05-17T00:03:41;10.43;;;3.38;;
17564;SDS011;62994;52.126;5.596;2023-05-17T00:06:10;6.68;;;3.10;;
17564;SDS011;62994;52.126;5.596;2023-05-17T00:08:42;7.63;;;3.22;;
17564;SDS011;62994;52.126;5.596;2023-05-17T00:11:09;11.00;;;3.70;;
17564;SDS011;62994;52.126;5.596;2023-05-17T00:13:38;10.30;;;3.92;;
17564;SDS011;62994;52.126;5.596;2023-05-17T00:16:07;7.50;;;3.63;;
17564;SDS011;62994;52.126;5.596;2023-05-17T00:18:36;8.23;;;3.45;;
17564;SDS011;62994;52.126;5.596;2023-05-17T00:21:06;15.15;;;4.05;;
17564;SDS011;62994;52.126;5.596;2023-05-17T00:23:43;10.70;;;3.80;;
17564;SDS011;62994;52.126;5.596;2023-05-17T00:26:10;11.07;;;3.28;;
17564;SDS011;62994;52.126;5.596;2023-05-17T00:28:39;10.55;;;3.42;;
17564;SDS011;62994;52.126;5.596;2023-05-17T00:31:08;4.88;;;3.22;;
17564;SDS011;62994;52.126;5.596;2023-05-17T00:33:35;8.70;;;3.90;;
17564;SDS011;62994;52.126;5.596;2023-05-17T00:36:03;7.95;;;3.20;;
17564;SDS011;62994;52.126;5.596;2023-05-17T00:38:33;9.43;;;3.40;;
17564;SDS011;62994;52.126;5.596;2023-05-17T00:41:00;10.73;;;3.85;;
17564;SDS011;62994;52.126;5.596;2023-05-17T00:43:27;10.02;;;3.47;;
17564;SDS011;62994;52.126;5.596;2023-05-17T00:46:07;12.32;;;3.58;;
17564;SDS011;62994;52.126;5.596;2023-05-17T00:48:34;4.82;;;3.53;;
17564;SDS011;62994;52.126;5.596;2023-05-17T00:51:07;7.45;;;3.25;;
17564;SDS011;62994;52.126;5.596;2023-05-17T00:53:37;13.60;;;3.15;;
17564;SDS011;62994;52.126;5.596;2023-05-17T00:56:07;9.45;;;4.10;;
17564;SDS011;62994;52.126;5.596;2023-05-17T00:58:34;7.10;;;4.10;;
17564;SDS011;62994;52.126;5.596;2023-05-17T01:01:04;9.50;;;4.13;;
17564;SDS011;62994;52.126;5.596;2023-05-17T01:03:32;11.32;;;3.90;;
17564;SDS011;62994;52.126;5.596;2023-05-17T01:05:59;9.20;;;3.85;;
17564;SDS011;62994;52.126;5.596;2023-05-17T01:08:41;9.05;;;4.28;;
17564;SDS011;62994;52.126;5.596;2023-05-17T01:11:13;8.25;;;3.58;;
17564;SDS011;62994;52.126;5.596;2023-05-17T01:14:05;3.20;;;2.90;;
17564;SDS011;62994;52.126;5.596;2023-05-17T01:16:46;10.10;;;3.78;;
17564;SDS011;62994;52.126;5.596;2023-05-17T01:19:24;7.13;;;3.17;;
17564;SDS011;62994;52.126;5.596;2023-05-17T01:22:09;9.57;;;3.80;;
17564;SDS011;62994;52.126;5.596;2023-05-17T01:25:01;7.50;;;3.25;;
17564;SDS011;62994;52.126;5.596;2023-05-17T01:27:39;5.50;;;3.28;;
17564;SDS011;62994;52.126;5.596;2023-05-17T01:30:14;7.40;;;3.45;;
17564;SDS011;62994;52.126;5.596;2023-05-17T01:32:42;10.23;;;4.25;;
17564;SDS011;62994;52.126;5.596;2023-05-17T01:35:10;10.88;;;4.07;;
17564;SDS011;62994;52.126;5.596;2023-05-17T01:37:40;5.93;;;3.60;;
17564;SDS011;62994;52.126;5.596;2023-05-17T01:40:07;9.20;;;4.38;;
17564;SDS011;62994;52.126;5.596;2023-05-17T01:42:37;6.75;;;3.30;;
17564;SDS011;62994;52.126;5.596;2023-05-17T01:45:08;10.45;;;4.28;;
17564;SDS011;62994;52.126;5.596;2023-05-17T01:47:42;7.75;;;3.78;;
17564;SDS011;62994;52.126;5.596;2023-05-17T01:50:20;10.57;;;4.07;;
17564;SDS011;62994;52.126;5.596;2023-05-17T01:52:51;5.53;;;3.30;;
17564;SDS011;62994;52.126;5.596;2023-05-17T01:55:23;13.02;;;3.75;;
17564;SDS011;62994;52.126;5.596;2023-05-17T01:57:56;11.50;;;3.80;;
17564;SDS011;62994;52.126;5.596;2023-05-17T02:00:27;6.75;;;3.65;;
17564;SDS011;62994;52.126;5.596;2023-05-17T02:03:00;8.02;;;4.38;;
17564;SDS011;62994;52.126;5.596;2023-05-17T02:05:32;9.80;;;3.90;;
17564;SDS011;62994;52.126;5.596;2023-05-17T02:08:09;12.02;;;3.70;;
17564;SDS011;62994;52.126;5.596;2023-05-17T02:10:36;9.68;;;3.83;;
17564;SDS011;62994;52.126;5.596;2023-05-17T02:13:07;8.52;;;4.30;;
17564;SDS011;62994;52.126;5.596;2023-05-17T02:15:35;7.05;;;3.83;;
17564;SDS011;62994;52.126;5.596;2023-05-17T02:18:03;14.55;;;4.32;;
17564;SDS011;62994;52.126;5.596;2023-05-17T02:20:30;7.28;;;3.50;;
17564;SDS011;62994;52.126;5.596;2023-05-17T02:22:58;11.20;;;4.25;;
17564;SDS011;62994;52.126;5.596;2023-05-17T02:25:28;11.30;;;3.78;;
17564;SDS011;62994;52.126;5.596;2023-05-17T02:27:55;8.50;;;4.28;;
17564;SDS011;62994;52.126;5.596;2023-05-17T02:30:32;8.55;;;4.18;;
17564;SDS011;62994;52.126;5.596;2023-05-17T02:33:11;7.65;;;3.92;;
17564;SDS011;62994;52.126;5.596;2023-05-17T02:35:43;7.50;;;3.70;;
17564;SDS011;62994;52.126;5.596;2023-05-17T02:38:14;11.80;;;4.13;;
17564;SDS011;62994;52.126;5.596;2023-05-17T02:40:42;7.45;;;3.42;;
17564;SDS011;62994;52.126;5.596;2023-05-17T02:43:09;6.45;;;3.22;;
17564;SDS011;62994;52.126;5.596;2023-05-17T02:45:38;11.15;;;4.28;;
17564;SDS011;62994;52.126;5.596;2023-05-17T02:48:07;8.23;;;4.35;;
17564;SDS011;62994;52.126;5.596;2023-05-17T02:50:37;11.45;;;4.90;;
17564;SDS011;62994;52.126;5.596;2023-05-17T02:53:06;14.30;;;4.20;;
17564;SDS011;62994;52.126;5.596;2023-05-17T02:55:35;4.57;;;4.07;;
17564;SDS011;62994;52.126;5.596;2023-05-17T02:58:02;9.20;;;5.03;;
17564;SDS011;62994;52.126;5.596;2023-05-17T03:00:29;9.45;;;4.60;;
17564;SDS011;62994;52.126;5.596;2023-05-17T03:02:58;16.42;;;5.50;;
17564;SDS011;62994;52.126;5.596;2023-05-17T03:05:32;15.32;;;4.45;;
17564;SDS011;62994;52.126;5.596;2023-05-17T03:07:59;15.45;;;4.45;;
17564;SDS011;62994;52.126;5.596;2023-05-17T03:10:28;9.60;;;3.90;;
17564;SDS011;62994;52.126;5.596;2023-05-17T03:13:02;10.82;;;5.05;;
17564;SDS011;62994;52.126;5.596;2023-05-17T03:15:31;13.20;;;5.07;;
17564;SDS011;62994;52.126;5.596;2023-05-17T03:18:04;12.55;;;4.05;;
17564;SDS011;62994;52.126;5.596;2023-05-17T03:20:31;11.35;;;4.57;;
17564;SDS011;62994;52.126;5.596;2023-05-17T03:22:59;9.75;;;4.82;;
17564;SDS011;62994;52.126;5.596;2023-05-17T03:25:30;14.75;;;4.70;;
17564;SDS011;62994;52.126;5.596;2023-05-17T03:27:57;15.23;;;5.45;;
17564;SDS011;62994;52.126;5.596;2023-05-17T03:30:25;12.40;;;5.60;;
17564;SDS011;62994;52.126;5.596;2023-05-17T03:32:52;14.48;;;5.25;;
17564;SDS011;62994;52.126;5.596;2023-05-17T03:35:21;8.43;;;4.85;;
17564;SDS011;62994;52.126;5.596;2023-05-17T03:37:48;12.38;;;4.00;;
17564;SDS011;62994;52.126;5.596;2023-05-17T03:40:15;12.73;;;4.78;;
17564;SDS011;62994;52.126;5.596;2023-05-17T03:42:44;14.68;;;4.95;;
17564;SDS011;62994;52.126;5.596;2023-05-17T03:45:13;8.35;;;3.80;;
17564;SDS011;62994;52.126;5.596;2023-05-17T03:47:41;7.80;;;4.80;;
17564;SDS011;62994;52.126;5.596;2023-05-17T03:50:09;7.50;;;4.25;;
17564;SDS011;62994;52.126;5.596;2023-05-17T03:52:38;5.72;;;3.80;;
17564;SDS011;62994;52.126;5.596;2023-05-17T03:55:06;8.43;;;4.40;;
17564;SDS011;62994;52.126;5.596;2023-05-17T03:57:38;6.65;;;4.38;;
17564;SDS011;62994;52.126;5.596;2023-05-17T04:00:06;5.45;;;3.63;;
17564;SDS011;62994;52.126;5.596;2023-05-17T04:02:36;14.98;;;4.18;;
17564;SDS011;62994;52.126;5.596;2023-05-17T04:05:04;9.20;;;3.83;;
17564;SDS011;62994;52.126;5.596;2023-05-17T04:07:31;4.55;;;4.15;;
17564;SDS011;62994;52.126;5.596;2023-05-17T04:10:01;8.52;;;4.15;;
17564;SDS011;62994;52.126;5.596;2023-05-17T04:12:28;4.90;;;3.55;;
17564;SDS011;62994;52.126;5.596;2023-05-17T04:14:57;7.65;;;3.90;;
17564;SDS011;62994;52.126;5.596;2023-05-17T04:17:28;6.05;;;4.10;;
17564;SDS011;62994;52.126;5.596;2023-05-17T04:19:56;6.57;;;4.30;;
17564;SDS011;62994;52.126;5.596;2023-05-17T04:22:23;7.07;;;4.10;;
17564;SDS011;62994;52.126;5.596;2023-05-17T04:24:51;5.50;;;3.60;;
17564;SDS011;62994;52.126;5.596;2023-05-17T04:27:20;5.82;;;4.22;;
17564;SDS011;62994;52.126;5.596;2023-05-17T04:29:47;8.10;;;4.07;;
17564;SDS011;62994;52.126;5.596;2023-05-17T04:32:18;7.32;;;4.93;;
17564;SDS011;62994;52.126;5.596;2023-05-17T04:34:46;5.90;;;3.70;;
17564;SDS011;62994;52.126;5.596;2023-05-17T04:37:16;6.78;;;4.13;;
17564;SDS011;62994;52.126;5.596;2023-05-17T04:39:44;5.95;;;4.00;;
17564;SDS011;62994;52.126;5.596;2023-05-17T04:42:13;6.82;;;4.00;;
17564;SDS011;62994;52.126;5.596;2023-05-17T04:44:42;6.05;;;3.53;;
17564;SDS011;62994;52.126;5.596;2023-05-17T04:47:14;5.68;;;4.70;;
17564;SDS011;62994;52.126;5.596;2023-05-17T04:49:45;6.78;;;4.15;;
17564;SDS011;62994;52.126;5.596;2023-05-17T04:52:15;7.32;;;3.60;;
17564;SDS011;62994;52.126;5.596;2023-05-17T04:54:43;5.18;;;3.90;;
17564;SDS011;62994;52.126;5.596;2023-05-17T04:57:14;8.18;;;4.20;;
17564;SDS011;62994;52.126;5.596;2023-05-17T04:59:47;6.45;;;4.03;;
17564;SDS011;62994;52.126;5.596;2023-05-17T05:02:14;5.32;;;3.80;;
17564;SDS011;62994;52.126;5.596;2023-05-17T05:04:42;11.93;;;4.80;;
17564;SDS011;62994;52.126;5.596;2023-05-17T05:07:09;6.63;;;3.80;;
17564;SDS011;62994;52.126;5.596;2023-05-17T05:09:36;5.03;;;3.55;;
17564;SDS011;62994;52.126;5.596;2023-05-17T05:12:04;13.13;;;3.90;;
17564;SDS011;62994;52.126;5.596;2023-05-17T05:14:32;4.53;;;3.28;;
17564;SDS011;62994;52.126;5.596;2023-05-17T05:17:01;6.25;;;3.10;;
17564;SDS011;62994;52.126;5.596;2023-05-17T05:19:28;10.02;;;3.35;;
17564;SDS011;62994;52.126;5.596;2023-05-17T05:21:56;6.50;;;2.83;;
17564;SDS011;62994;52.126;5.596;2023-05-17T05:24:25;5.82;;;3.53;;
17564;SDS011;62994;52.126;5.596;2023-05-17T05:26:55;11.13;;;3.42;;
17564;SDS011;62994;52.126;5.596;2023-05-17T05:29:23;7.28;;;2.58;;
17564;SDS011;62994;52.126;5.596;2023-05-17T05:31:50;6.65;;;2.65;;
17564;SDS011;62994;52.126;5.596;2023-05-17T05:34:19;8.85;;;2.60;;
17564;SDS011;62994;52.126;5.596;2023-05-17T05:37:02;6.97;;;2.47;;
17564;SDS011;62994;52.126;5.596;2023-05-17T05:39:32;14.50;;;2.90;;
17564;SDS011;62994;52.126;5.596;2023-05-17T05:41:59;7.55;;;2.97;;
17564;SDS011;62994;52.126;5.596;2023-05-17T05:44:34;8.10;;;3.85;;
17564;SDS011;62994;52.126;5.596;2023-05-17T05:47:01;7.20;;;2.40;;
17564;SDS011;62994;52.126;5.596;2023-05-17T05:49:30;11.02;;;2.85;;
17564;SDS011;62994;52.126;5.596;2023-05-17T05:51:57;13.40;;;2.75;;
17564;SDS011;62994;52.126;5.596;2023-05-17T05:54:25;10.48;;;2.33;;
17564;SDS011;62994;52.126;5.596;2023-05-17T05:56:52;11.35;;;2.60;;
17564;SDS011;62994;52.126;5.596;2023-05-17T05:59:24;9.15;;;2.45;;
17564;SDS011;62994;52.126;5.596;2023-05-17T06:01:57;9.43;;;2.28;;
17564;SDS011;62994;52.126;5.596;2023-05-17T06:04:29;11.70;;;2.45;;
17564;SDS011;62994;52.126;5.596;2023-05-17T06:06:58;4.75;;;2.00;;
17564;SDS011;62994;52.126;5.596;2023-05-17T06:09:26;9.18;;;2.50;;
17564;SDS011;62994;52.126;5.596;2023-05-17T06:11:53;8.73;;;2.38;;
17564;SDS011;62994;52.126;5.596;2023-05-17T06:14:21;4.97;;;2.13;;
17564;SDS011;62994;52.126;5.596;2023-05-17T06:16:51;5.68;;;2.10;;
17564;SDS011;62994;52.126;5.596;2023-05-17T06:19:20;9.52;;;2.17;;
17564;SDS011;62994;52.126;5.596;2023-05-17T06:21:52;6.55;;;2.17;;
17564;SDS011;62994;52.126;5.596;2023-05-17T06:24:28;6.55;;;2.35;;
17564;SDS011;62994;52.126;5.596;2023-05-17T06:26:56;11.48;;;2.53;;
17564;SDS011;62994;52.126;5.596;2023-05-17T06:29:26;5.80;;;2.20;;
17564;SDS011;62994;52.126;5.596;2023-05-17T06:31:54;9.57;;;2.00;;
17564;SDS011;62994;52.126;5.596;2023-05-17T06:34:22;9.35;;;2.50;;
17564;SDS011;62994;52.126;5.596;2023-05-17T06:37:03;9.35;;;2.13;;
17564;SDS011;62994;52.126;5.596;2023-05-17T06:39:30;6.60;;;2.60;;
17564;SDS011;62994;52.126;5.596;2023-05-17T06:42:03;6.82;;;2.28;;
17564;SDS011;62994;52.126;5.596;2023-05-17T06:44:32;8.60;;;2.30;;
17564;SDS011;62994;52.126;5.596;2023-05-17T06:47:02;7.75;;;2.38;;
17564;SDS011;62994;52.126;5.596;2023-05-17T06:49:36;8.90;;;1.98;;
17564;SDS011;62994;52.126;5.596;2023-05-17T06:52:05;13.60;;;3.22;;
17564;SDS011;62994;52.126;5.596;2023-05-17T06:54:32;6.38;;;2.40;;
17564;SDS011;62994;52.126;5.596;2023-05-17T06:57:05;6.78;;;2.10;;
17564;SDS011;62994;52.126;5.596;2023-05-17T06:59:34;8.13;;;2.20;;
17564;SDS011;62994;52.126;5.596;2023-05-17T07:02:01;6.57;;;1.90;;
17564;SDS011;62994;52.126;5.596;2023-05-17T07:04:37;7.15;;;1.85;;
17564;SDS011;62994;52.126;5.596;2023-05-17T07:07:07;14.35;;;2.15;;
17564;SDS011;62994;52.126;5.596;2023-05-17T07:09:35;11.00;;;2.15;;
17564;SDS011;62994;52.126;5.596;2023-05-17T07:12:05;11.88;;;2.03;;
17564;SDS011;62994;52.126;5.596;2023-05-17T07:14:33;4.45;;;1.80;;
17564;SDS011;62994;52.126;5.596;2023-05-17T07:17:00;10.50;;;2.65;;
17564;SDS011;62994;52.126;5.596;2023-05-17T07:19:36;8.07;;;1.90;;
17564;SDS011;62994;52.126;5.596;2023-05-17T07:22:03;7.68;;;2.13;;
17564;SDS011;62994;52.126;5.596;2023-05-17T07:24:32;6.65;;;2.10;;
17564;SDS011;62994;52.126;5.596;2023-05-17T07:27:02;3.42;;;1.50;;
17564;SDS011;62994;52.126;5.596;2023-05-17T07:29:34;7.43;;;1.63;;
17564;SDS011;62994;52.126;5.596;2023-05-17T07:32:02;5.63;;;1.65;;
17564;SDS011;62994;52.126;5.596;2023-05-17T07:34:30;5.88;;;1.90;;
17564;SDS011;62994;52.126;5.596;2023-05-17T07:36:58;6.45;;;2.13;;
17564;SDS011;62994;52.126;5.596;2023-05-17T07:39:25;7.00;;;1.88;;
17564;SDS011;62994;52.126;5.596;2023-05-17T07:41:58;7.18;;;1.88;;
17564;SDS011;62994;52.126;5.596;2023-05-17T07:44:25;7.13;;;1.90;;
17564;SDS011;62994;52.126;5.596;2023-05-17T07:46:53;7.30;;;2.10;;
17564;SDS011;62994;52.126;5.596;2023-05-17T07:49:26;5.32;;;1.67;;
17564;SDS011;62994;52.126;5.596;2023-05-17T07:51:53;7.75;;;1.80;;
17564;SDS011;62994;52.126;5.596;2023-05-17T07:54:21;6.72;;;1.85;;
17564;SDS011;62994;52.126;5.596;2023-05-17T07:56:51;8.07;;;1.88;;
17564;SDS011;62994;52.126;5.596;2023-05-17T07:59:26;5.63;;;1.50;;
17564;SDS011;62994;52.126;5.596;2023-05-17T08:01:58;4.13;;;1.80;;
17564;SDS011;62994;52.126;5.596;2023-05-17T08:04:25;4.70;;;1.55;;
17564;SDS011;62994;52.126;5.596;2023-05-17T08:06:55;2.85;;;1.50;;
17564;SDS011;62994;52.126;5.596;2023-05-17T08:09:25;6.55;;;1.67;;
17564;SDS011;62994;52.126;5.596;2023-05-17T08:11:55;4.93;;;1.67;;
17564;SDS011;62994;52.126;5.596;2023-05-17T08:14:32;3.65;;;1.77;;
17564;SDS011;62994;52.126;5.596;2023-05-17T08:17:08;7.30;;;1.80;;
17564;SDS011;62994;52.126;5.596;2023-05-17T08:19:35;4.90;;;1.58;;
17564;SDS011;62994;52.126;5.596;2023-05-17T08:22:03;10.13;;;1.90;;
17564;SDS011;62994;52.126;5.596;2023-05-17T08:24:33;5.03;;;1.35;;
17564;SDS011;62994;52.126;5.596;2023-05-17T08:27:10;3.33;;;1.38;;
17564;SDS011;62994;52.126;5.596;2023-05-17T08:29:43;3.80;;;1.35;;
17564;SDS011;62994;52.126;5.596;2023-05-17T08:32:13;5.25;;;1.25;;
17564;SDS011;62994;52.126;5.596;2023-05-17T08:34:45;4.45;;;1.73;;
17564;SDS011;62994;52.126;5.596;2023-05-17T08:37:15;4.57;;;1.48;;
17564;SDS011;62994;52.126;5.596;2023-05-17T08:39:43;7.72;;;1.38;;
17564;SDS011;62994;52.126;5.596;2023-05-17T08:42:11;2.88;;;1.50;;
17564;SDS011;62994;52.126;5.596;2023-05-17T08:44:41;9.45;;;1.73;;
17564;SDS011;62994;52.126;5.596;2023-05-17T08:47:09;5.15;;;1.75;;
17564;SDS011;62994;52.126;5.596;2023-05-17T08:49:36;8.90;;;1.33;;
17564;SDS011;62994;52.126;5.596;2023-05-17T08:52:05;3.72;;;1.65;;
17564;SDS011;62994;52.126;5.596;2023-05-17T08:54:37;4.28;;;1.58;;
17564;SDS011;62994;52.126;5.596;2023-05-17T08:57:05;6.60;;;1.95;;
17564;SDS011;62994;52.126;5.596;2023-05-17T08:59:33;5.40;;;1.50;;
17564;SDS011;62994;52.126;5.596;2023-05-17T09:02:03;4.20;;;1.60;;
17564;SDS011;62994;52.126;5.596;2023-05-17T09:04:31;4.00;;;1.50;;
17564;SDS011;62994;52.126;5.596;2023-05-17T09:06:58;8.27;;;1.30;;
17564;SDS011;62994;52.126;5.596;2023-05-17T09:09:27;5.88;;;1.35;;
17564;SDS011;62994;52.126;5.596;2023-05-17T09:11:55;3.90;;;1.25;;
17564;SDS011;62994;52.126;5.596;2023-05-17T09:14:22;2.38;;;1.00;;
17564;SDS011;62994;52.126;5.596;2023-05-17T09:16:57;3.50;;;1.02;;
17564;SDS011;62994;52.126;5.596;2023-05-17T09:19:31;4.20;;;1.48;;
17564;SDS011;62994;52.126;5.596;2023-05-17T09:21:58;3.22;;;1.25;;
17564;SDS011;62994;52.126;5.596;2023-05-17T09:24:31;4.65;;;1.10;;
17564;SDS011;62994;52.126;5.596;2023-05-17T09:27:02;4.88;;;1.33;;
17564;SDS011;62994;52.126;5.596;2023-05-17T09:29:30;2.80;;;1.20;;
17564;SDS011;62994;52.126;5.596;2023-05-17T09:34:45;3.92;;;1.20;;
17564;SDS011;62994;52.126;5.596;2023-05-17T09:37:15;4.65;;;1.00;;
17564;SDS011;62994;52.126;5.596;2023-05-17T09:39:44;3.42;;;1.23;;
17564;SDS011;62994;52.126;5.596;2023-05-17T09:42:12;4.80;;;1.42;;
17564;SDS011;62994;52.126;5.596;2023-05-17T09:44:44;2.33;;;1.08;;
17564;SDS011;62994;52.126;5.596;2023-05-17T09:47:25;4.55;;;1.30;;
17564;SDS011;62994;52.126;5.596;2023-05-17T09:49:55;1.80;;;1.05;;
17564;SDS011;62994;52.126;5.596;2023-05-17T09:52:24;4.63;;;1.10;;
17564;SDS011;62994;52.126;5.596;2023-05-17T09:54:56;2.65;;;1.10;;
17564;SDS011;62994;52.126;5.596;2023-05-17T09:57:35;3.45;;;1.02;;
17564;SDS011;62994;52.126;5.596;2023-05-17T10:00:15;3.03;;;0.90;;
17564;SDS011;62994;52.126;5.596;2023-05-17T10:02:47;5.93;;;0.98;;
17564;SDS011;62994;52.126;5.596;2023-05-17T10:05:21;3.97;;;1.17;;
17564;SDS011;62994;52.126;5.596;2023-05-17T10:07:49;5.80;;;1.20;;
17564;SDS011;62994;52.126;5.596;2023-05-17T10:10:21;1.25;;;0.70;;
17564;SDS011;62994;52.126;5.596;2023-05-17T10:12:51;4.50;;;1.35;;
17564;SDS011;62994;52.126;5.596;2023-05-17T10:15:19;4.10;;;1.15;;
17564;SDS011;62994;52.126;5.596;2023-05-17T10:17:53;3.20;;;1.48;;
17564;SDS011;62994;52.126;5.596;2023-05-17T10:20:20;3.03;;;1.00;;
17564;SDS011;62994;52.126;5.596;2023-05-17T10:22:47;2.58;;;1.13;;
17564;SDS011;62994;52.126;5.596;2023-05-17T10:25:15;4.35;;;1.40;;
17564;SDS011;62994;52.126;5.596;2023-05-17T10:27:44;2.40;;;1.20;;
17564;SDS011;62994;52.126;5.596;2023-05-17T10:30:16;4.68;;;1.50;;
17564;SDS011;62994;52.126;5.596;2023-05-17T10:32:51;3.08;;;1.30;;
17564;SDS011;62994;52.126;5.596;2023-05-17T10:35:21;3.85;;;1.60;;
17564;SDS011;62994;52.126;5.596;2023-05-17T10:38:01;2.97;;;1.20;;
17564;SDS011;62994;52.126;5.596;2023-05-17T10:40:28;7.32;;;1.60;;
17564;SDS011;62994;52.126;5.596;2023-05-17T10:43:01;3.03;;;1.42;;
17564;SDS011;62994;52.126;5.596;2023-05-17T10:45:31;9.40;;;1.80;;
17564;SDS011;62994;52.126;5.596;2023-05-17T10:48:01;4.32;;;1.55;;
17564;SDS011;62994;52.126;5.596;2023-05-17T10:50:40;5.78;;;1.25;;
17564;SDS011;62994;52.126;5.596;2023-05-17T10:53:16;1.92;;;1.33;;
17564;SDS011;62994;52.126;5.596;2023-05-17T10:55:43;3.10;;;1.38;;
17564;SDS011;62994;52.126;5.596;2023-05-17T10:58:12;4.53;;;1.00;;
17564;SDS011;62994;52.126;5.596;2023-05-17T11:00:43;4.95;;;1.70;;
17564;SDS011;62994;52.126;5.596;2023-05-17T11:03:20;5.70;;;1.38;;
17564;SDS011;62994;52.126;5.596;2023-05-17T11:06:11;3.08;;;1.58;;
17564;SDS011;62994;52.126;5.596;2023-05-17T11:11:33;8.60;;;1.90;;
17564;SDS011;62994;52.126;5.596;2023-05-17T11:14:03;5.18;;;1.30;;
17564;SDS011;62994;52.126;5.596;2023-05-17T11:16:36;2.38;;;1.20;;
17564;SDS011;62994;52.126;5.596;2023-05-17T11:19:10;5.25;;;1.17;;
17564;SDS011;62994;52.126;5.596;2023-05-17T11:21:44;6.78;;;1.60;;
17564;SDS011;62994;52.126;5.596;2023-05-17T11:24:16;3.58;;;1.77;;
17564;SDS011;62994;52.126;5.596;2023-05-17T11:26:51;4.75;;;1.63;;
17564;SDS011;62994;52.126;5.596;2023-05-17T11:29:29;5.82;;;1.45;;
17564;SDS011;62994;52.126;5.596;2023-05-17T11:31:57;4.57;;;1.75;;
17564;SDS011;62994;52.126;5.596;2023-05-17T11:34:30;5.60;;;1.70;;
17564;SDS011;62994;52.126;5.596;2023-05-17T11:37:08;4.95;;;2.03;;
17564;SDS011;62994;52.126;5.596;2023-05-17T11:39:42;5.45;;;1.63;;
17564;SDS011;62994;52.126;5.596;2023-05-17T11:42:29;4.65;;;1.50;;
17564;SDS011;62994;52.126;5.596;2023-05-17T11:44:56;4.78;;;1.77;;
17564;SDS011;62994;52.126;5.596;2023-05-17T11:47:25;5.85;;;1.73;;
17564;SDS011;62994;52.126;5.596;2023-05-17T11:50:02;5.47;;;1.70;;
17564;SDS011;62994;52.126;5.596;2023-05-17T11:52:32;3.22;;;1.50;;
17564;SDS011;62994;52.126;5.596;2023-05-17T11:55:05;5.68;;;1.50;;
17564;SDS011;62994;52.126;5.596;2023-05-17T11:57:35;5.80;;;1.50;;
17564;SDS011;62994;52.126;5.596;2023-05-17T12:00:07;5.72;;;2.08;;
17564;SDS011;62994;52.126;5.596;2023-05-17T12:02:40;6.75;;;1.73;;
17564;SDS011;62994;52.126;5.596;2023-05-17T12:05:19;2.78;;;1.45;;
17564;SDS011;62994;52.126;5.596;2023-05-17T12:07:51;6.10;;;1.70;;
17564;SDS011;62994;52.126;5.596;2023-05-17T12:10:20;3.70;;;1.73;;
17564;SDS011;62994;52.126;5.596;2023-05-17T12:12:52;5.63;;;1.73;;
17564;SDS011;62994;52.126;5.596;2023-05-17T12:15:29;3.95;;;1.65;;
17564;SDS011;62994;52.126;5.596;2023-05-17T12:17:57;4.57;;;1.98;;
17564;SDS011;62994;52.126;5.596;2023-05-17T12:20:26;3.38;;;1.67;;
17564;SDS011;62994;52.126;5.596;2023-05-17T12:23:02;5.07;;;1.90;;
17564;SDS011;62994;52.126;5.596;2023-05-17T12:25:33;3.03;;;1.40;;
17564;SDS011;62994;52.126;5.596;2023-05-17T12:30:52;6.03;;;1.77;;
17564;SDS011;62994;52.126;5.596;2023-05-17T12:33:22;2.50;;;1.50;;
17564;SDS011;62994;52.126;5.596;2023-05-17T12:35:51;4.13;;;1.75;;
17564;SDS011;62994;52.126;5.596;2023-05-17T12:38:19;7.35;;;1.60;;
17564;SDS011;62994;52.126;5.596;2023-05-17T12:40:51;7.10;;;1.70;;
17564;SDS011;62994;52.126;5.596;2023-05-17T12:43:23;5.45;;;1.60;;
17564;SDS011;62994;52.126;5.596;2023-05-17T12:45:53;4.13;;;1.67;;
17564;SDS011;62994;52.126;5.596;2023-05-17T12:48:27;3.53;;;1.58;;
17564;SDS011;62994;52.126;5.596;2023-05-17T12:50:57;4.57;;;1.67;;
17564;SDS011;62994;52.126;5.596;2023-05-17T12:53:39;5.35;;;1.60;;
17564;SDS011;62994;52.126;5.596;2023-05-17T12:56:13;4.20;;;1.70;;
17564;SDS011;62994;52.126;5.596;2023-05-17T13:01:38;3.90;;;1.98;;
17564;SDS011;62994;52.126;5.596;2023-05-17T13:04:08;3.45;;;1.65;;
17564;SDS011;62994;52.126;5.596;2023-05-17T13:06:49;6.47;;;2.22;;
17564;SDS011;62994;52.126;5.596;2023-05-17T13:09:18;3.90;;;1.98;;
17564;SDS011;62994;52.126;5.596;2023-05-17T13:11:52;3.50;;;1.90;;
17564;SDS011;62994;52.126;5.596;2023-05-17T13:14:34;3.47;;;2.08;;
17564;SDS011;62994;52.126;5.596;2023-05-17T13:17:06;7.65;;;2.20;;
17564;SDS011;62994;52.126;5.596;2023-05-17T13:19:35;4.38;;;2.15;;
17564;SDS011;62994;52.126;5.596;2023-05-17T13:22:09;5.35;;;1.83;;
17564;SDS011;62994;52.126;5.596;2023-05-17T13:24:37;3.70;;;2.38;;
17564;SDS011;62994;52.126;5.596;2023-05-17T13:27:05;3.88;;;1.95;;
17564;SDS011;62994;52.126;5.596;2023-05-17T13:29:33;5.80;;;2.22;;
17564;SDS011;62994;52.126;5.596;2023-05-17T13:32:10;4.80;;;2.10;;
17564;SDS011;62994;52.126;5.596;2023-05-17T13:34:38;8.80;;;2.78;;
17564;SDS011;62994;52.126;5.596;2023-05-17T13:37:10;8.82;;;2.30;;
17564;SDS011;62994;52.126;5.596;2023-05-17T13:39:37;5.47;;;1.80;;
17564;SDS011;62994;52.126;5.596;2023-05-17T13:42:05;6.50;;;2.00;;
17564;SDS011;62994;52.126;5.596;2023-05-17T13:44:33;6.28;;;2.20;;
17564;SDS011;62994;52.126;5.596;2023-05-17T13:47:08;11.27;;;2.83;;
17564;SDS011;62994;52.126;5.596;2023-05-17T13:49:41;2.60;;;1.88;;
17564;SDS011;62994;52.126;5.596;2023-05-17T13:52:12;5.50;;;2.30;;
17564;SDS011;62994;52.126;5.596;2023-05-17T13:54:43;12.18;;;2.33;;
17564;SDS011;62994;52.126;5.596;2023-05-17T13:57:20;3.08;;;2.13;;
17564;SDS011;62994;52.126;5.596;2023-05-17T13:59:51;2.65;;;1.90;;
17564;SDS011;62994;52.126;5.596;2023-05-17T14:02:21;5.28;;;1.90;;
17564;SDS011;62994;52.126;5.596;2023-05-17T14:04:50;4.60;;;1.88;;
17564;SDS011;62994;52.126;5.596;2023-05-17T14:07:24;3.95;;;2.10;;
17564;SDS011;62994;52.126;5.596;2023-05-17T14:09:52;6.95;;;2.10;;
17564;SDS011;62994;52.126;5.596;2023-05-17T14:12:20;5.82;;;1.95;;
17564;SDS011;62994;52.126;5.596;2023-05-17T14:14:49;4.85;;;2.15;;
17564;SDS011;62994;52.126;5.596;2023-05-17T14:17:21;3.70;;;1.90;;
17564;SDS011;62994;52.126;5.596;2023-05-17T14:19:49;2.38;;;1.77;;
17564;SDS011;62994;52.126;5.596;2023-05-17T14:22:19;4.70;;;1.85;;
17564;SDS011;62994;52.126;5.596;2023-05-17T14:24:49;4.57;;;2.13;;
17564;SDS011;62994;52.126;5.596;2023-05-17T14:27:21;5.18;;;2.20;;
17564;SDS011;62994;52.126;5.596;2023-05-17T14:29:49;5.57;;;2.40;;
17564;SDS011;62994;52.126;5.596;2023-05-17T14:32:16;5.47;;;2.03;;
17564;SDS011;62994;52.126;5.596;2023-05-17T14:34:43;3.72;;;2.20;;
17564;SDS011;62994;52.126;5.596;2023-05-17T14:37:13;6.78;;;2.42;;
17564;SDS011;62994;52.126;5.596;2023-05-17T14:39:40;3.50;;;1.70;;
17564;SDS011;62994;52.126;5.596;2023-05-17T14:42:09;4.20;;;2.22;;
17564;SDS011;62994;52.126;5.596;2023-05-17T14:44:36;6.60;;;2.22;;
17564;SDS011;62994;52.126;5.596;2023-05-17T14:47:05;4.38;;;1.90;;
17564;SDS011;62994;52.126;5.596;2023-05-17T14:49:37;6.25;;;2.25;;
17564;SDS011;62994;52.126;5.596;2023-05-17T14:52:10;3.90;;;2.28;;
17564;SDS011;62994;52.126;5.596;2023-05-17T14:54:37;2.45;;;1.98;;
17564;SDS011;62994;52.126;5.596;2023-05-17T14:57:12;10.52;;;2.03;;
17564;SDS011;62994;52.126;5.596;2023-05-17T14:59:39;5.88;;;1.77;;
17564;SDS011;62994;52.126;5.596;2023-05-17T15:02:11;4.35;;;2.35;;
17564;SDS011;62994;52.126;5.596;2023-05-17T15:04:41;5.40;;;2.00;;
17564;SDS011;62994;52.126;5.596;2023-05-17T15:07:14;5.40;;;2.60;;
17564;SDS011;62994;52.126;5.596;2023-05-17T15:09:43;3.67;;;2.28;;
17564;SDS011;62994;52.126;5.596;2023-05-17T15:12:17;2.78;;;1.90;;
17564;SDS011;62994;52.126;5.596;2023-05-17T15:14:46;4.68;;;2.28;;
17564;SDS011;62994;52.126;5.596;2023-05-17T15:17:32;9.55;;;2.00;;